sensor_id;sensor_type;location;lat;lon;timestamp;temperature;humidity
5834;DHT22;2943;48.012;10.968;2023-07-31T00:01:34;18.60;99.90
5834;DHT22;2943;48.012;10.968;2023-07-31T00:04:01;18.50;99.90
5834;DHT22;2943;48.012;10.968;2023-07-31T00:06:27;18.50;99.90
5834;DHT22;2943;48.012;10.968;2023-07-31T00:08:54;18.50;99.90
5834;DHT22;2943;48.012;10.968;2023-07-31T00:11:21;18.40;99.90
5834;DHT22;2943;48.012;10.968;2023-07-31T00:13:49;18.40;99.90
5834;DHT22;2943;48.012;10.968;2023-07-31T00:16:15;18.40;99.90
5834;DHT22;2943;48.012;10.968;2023-07-31T00:18:42;18.40;99.90
5834;DHT22;2943;48.012;10.968;2023-07-31T00:21:08;18.40;99.90
5834;DHT22;2943;48.012;10.968;2023-07-31T00:23:35;18.30;99.90
5834;DHT22;2943;48.012;10.968;2023-07-31T00:26:01;18.30;99.90
5834;DHT22;2943;48.012;10.968;2023-07-31T00:28:28;18.30;99.90
5834;DHT22;2943;48.012;10.968;2023-07-31T00:30:56;18.30;99.90
5834;DHT22;2943;48.012;10.968;2023-07-31T00:33:23;18.30;99.90
5834;DHT22;2943;48.012;10.968;2023-07-31T00:35:49;18.30;99.90
5834;DHT22;2943;48.012;10.968;2023-07-31T00:38:16;18.30;99.90
5834;DHT22;2943;48.012;10.968;2023-07-31T00:40:42;18.20;99.90
5834;DHT22;2943;48.012;10.968;2023-07-31T00:43:09;18.20;99.90
5834;DHT22;2943;48.012;10.968;2023-07-31T00:45:36;18.20;99.90
5834;DHT22;2943;48.012;10.968;2023-07-31T00:48:04;18.10;99.90
5834;DHT22;2943;48.012;10.968;2023-07-31T00:50:32;18.10;99.90
5834;DHT22;2943;48.012;10.968;2023-07-31T00:52:59;18.10;99.90
5834;DHT22;2943;48.012;10.968;2023-07-31T00:55:26;18.10;99.90
5834;DHT22;2943;48.012;10.968;2023-07-31T00:57:52;18.10;99.90
5834;DHT22;2943;48.012;10.968;2023-07-31T01:00:21;18.00;99.90
5834;DHT22;2943;48.012;10.968;2023-07-31T01:02:47;18.00;99.90
5834;DHT22;2943;48.012;10.968;2023-07-31T01:05:16;18.00;99.90
5834;DHT22;2943;48.012;10.968;2023-07-31T01:07:45;18.00;99.90
5834;DHT22;2943;48.012;10.968;2023-07-31T01:10:15;17.90;99.90
5834;DHT22;2943;48.012;10.968;2023-07-31T01:12:43;18.00;99.90
5834;DHT22;2943;48.012;10.968;2023-07-31T01:15:11;18.00;99.90
5834;DHT22;2943;48.012;10.968;2023-07-31T01:17:39;18.00;99.90
5834;DHT22;2943;48.012;10.968;2023-07-31T01:20:08;18.00;99.90
5834;DHT22;2943;48.012;10.968;2023-07-31T01:22:46;17.90;99.90
5834;DHT22;2943;48.012;10.968;2023-07-31T01:25:16;17.90;99.90
5834;DHT22;2943;48.012;10.968;2023-07-31T01:27:50;18.00;99.90
5834;DHT22;2943;48.012;10.968;2023-07-31T01:30:21;17.90;99.90
5834;DHT22;2943;48.012;10.968;2023-07-31T01:32:51;17.90;99.90
5834;DHT22;2943;48.012;10.968;2023-07-31T01:35:19;17.90;99.90
5834;DHT22;2943;48.012;10.968;2023-07-31T01:37:45;17.90;99.90
5834;DHT22;2943;48.012;10.968;2023-07-31T01:40:12;17.90;99.90
5834;DHT22;2943;48.012;10.968;2023-07-31T01:42:39;17.80;99.90
5834;DHT22;2943;48.012;10.968;2023-07-31T01:45:07;17.80;99.90
5834;DHT22;2943;48.012;10.968;2023-07-31T01:47:34;17.80;99.90
5834;DHT22;2943;48.012;10.968;2023-07-31T01:50:01;17.80;99.90
5834;DHT22;2943;48.012;10.968;2023-07-31T01:52:27;17.80;99.90
5834;DHT22;2943;48.012;10.968;2023-07-31T01:54:55;17.80;99.90
5834;DHT22;2943;48.012;10.968;2023-07-31T01:57:22;17.80;99.90
5834;DHT22;2943;48.012;10.968;2023-07-31T01:59:48;17.80;99.90
5834;DHT22;2943;48.012;10.968;2023-07-31T02:02:16;17.80;99.90
5834;DHT22;2943;48.012;10.968;2023-07-31T02:04:43;17.80;99.90
5834;DHT22;2943;48.012;10.968;2023-07-31T02:07:09;17.70;99.90
5834;DHT22;2943;48.012;10.968;2023-07-31T02:09:36;17.80;99.90
5834;DHT22;2943;48.012;10.968;2023-07-31T02:12:03;17.80;99.90
5834;DHT22;2943;48.012;10.968;2023-07-31T02:14:30;17.80;99.90
5834;DHT22;2943;48.012;10.968;2023-07-31T02:16:56;17.80;99.90
5834;DHT22;2943;48.012;10.968;2023-07-31T02:19:24;17.80;99.90
5834;DHT22;2943;48.012;10.968;2023-07-31T02:21:51;17.80;99.90
5834;DHT22;2943;48.012;10.968;2023-07-31T02:24:17;17.80;99.90
5834;DHT22;2943;48.012;10.968;2023-07-31T02:26:44;17.80;99.90
5834;DHT22;2943;48.012;10.968;2023-07-31T02:29:11;17.80;99.90
5834;DHT22;2943;48.012;10.968;2023-07-31T02:31:37;17.70;99.90
5834;DHT22;2943;48.012;10.968;2023-07-31T02:34:04;17.70;99.90
5834;DHT22;2943;48.012;10.968;2023-07-31T02:36:32;17.70;99.90
5834;DHT22;2943;48.012;10.968;2023-07-31T02:38:58;17.70;99.90
5834;DHT22;2943;48.012;10.968;2023-07-31T02:41:25;17.70;99.90
5834;DHT22;2943;48.012;10.968;2023-07-31T02:43:52;17.60;99.90
5834;DHT22;2943;48.012;10.968;2023-07-31T02:46:19;17.60;99.90
5834;DHT22;2943;48.012;10.968;2023-07-31T02:48:49;17.60;99.90
5834;DHT22;2943;48.012;10.968;2023-07-31T02:51:16;17.50;99.90
5834;DHT22;2943;48.012;10.968;2023-07-31T02:53:44;17.50;99.90
5834;DHT22;2943;48.012;10.968;2023-07-31T02:56:11;17.50;99.90
5834;DHT22;2943;48.012;10.968;2023-07-31T02:58:37;17.40;99.90
5834;DHT22;2943;48.012;10.968;2023-07-31T03:01:04;17.40;99.90
5834;DHT22;2943;48.012;10.968;2023-07-31T03:03:30;17.40;99.90
5834;DHT22;2943;48.012;10.968;2023-07-31T03:05:57;17.30;99.90
5834;DHT22;2943;48.012;10.968;2023-07-31T03:08:24;17.30;99.90
5834;DHT22;2943;48.012;10.968;2023-07-31T03:10:52;17.30;99.90
5834;DHT22;2943;48.012;10.968;2023-07-31T03:13:19;17.30;99.90
5834;DHT22;2943;48.012;10.968;2023-07-31T03:15:45;17.20;99.90
5834;DHT22;2943;48.012;10.968;2023-07-31T03:18:12;17.20;99.90
5834;DHT22;2943;48.012;10.968;2023-07-31T03:20:41;17.10;99.90
5834;DHT22;2943;48.012;10.968;2023-07-31T03:23:08;17.10;99.90
5834;DHT22;2943;48.012;10.968;2023-07-31T03:25:34;17.00;99.90
5834;DHT22;2943;48.012;10.968;2023-07-31T03:28:02;16.90;99.90
5834;DHT22;2943;48.012;10.968;2023-07-31T03:30:29;16.90;99.90
5834;DHT22;2943;48.012;10.968;2023-07-31T03:32:56;16.90;99.90
5834;DHT22;2943;48.012;10.968;2023-07-31T03:35:23;16.80;99.90
5834;DHT22;2943;48.012;10.968;2023-07-31T03:37:49;16.80;99.90
5834;DHT22;2943;48.012;10.968;2023-07-31T03:40:16;16.80;99.90
5834;DHT22;2943;48.012;10.968;2023-07-31T03:42:42;16.80;99.90
5834;DHT22;2943;48.012;10.968;2023-07-31T03:45:11;16.70;99.90
5834;DHT22;2943;48.012;10.968;2023-07-31T03:47:37;16.70;99.90
5834;DHT22;2943;48.012;10.968;2023-07-31T03:50:04;16.60;99.90
5834;DHT22;2943;48.012;10.968;2023-07-31T03:52:31;16.60;99.90
5834;DHT22;2943;48.012;10.968;2023-07-31T03:54:58;16.60;99.90
5834;DHT22;2943;48.012;10.968;2023-07-31T03:57:24;16.60;99.90
5834;DHT22;2943;48.012;10.968;2023-07-31T03:59:51;16.50;99.90
5834;DHT22;2943;48.012;10.968;2023-07-31T04:02:19;16.50;99.90
5834;DHT22;2943;48.012;10.968;2023-07-31T04:04:46;16.40;99.90
5834;DHT22;2943;48.012;10.968;2023-07-31T04:07:12;16.40;99.90
5834;DHT22;2943;48.012;10.968;2023-07-31T04:09:39;16.40;99.90
5834;DHT22;2943;48.012;10.968;2023-07-31T04:12:06;16.30;99.90
5834;DHT22;2943;48.012;10.968;2023-07-31T04:14:32;16.30;99.90
5834;DHT22;2943;48.012;10.968;2023-07-31T04:16:59;16.30;99.90
5834;DHT22;2943;48.012;10.968;2023-07-31T04:19:27;16.30;99.90
5834;DHT22;2943;48.012;10.968;2023-07-31T04:21:54;16.20;99.90
5834;DHT22;2943;48.012;10.968;2023-07-31T04:24:20;16.10;99.90
5834;DHT22;2943;48.012;10.968;2023-07-31T04:26:49;16.10;99.90
5834;DHT22;2943;48.012;10.968;2023-07-31T04:29:16;16.10;99.90
5834;DHT22;2943;48.012;10.968;2023-07-31T04:31:42;16.10;99.90
5834;DHT22;2943;48.012;10.968;2023-07-31T04:34:09;16.00;99.90
5834;DHT22;2943;48.012;10.968;2023-07-31T04:36:38;16.00;99.90
5834;DHT22;2943;48.012;10.968;2023-07-31T04:39:05;16.00;99.90
5834;DHT22;2943;48.012;10.968;2023-07-31T04:41:32;15.90;99.90
5834;DHT22;2943;48.012;10.968;2023-07-31T04:43:58;16.00;99.90
5834;DHT22;2943;48.012;10.968;2023-07-31T04:46:25;16.00;99.90
5834;DHT22;2943;48.012;10.968;2023-07-31T04:48:51;16.00;99.90
5834;DHT22;2943;48.012;10.968;2023-07-31T04:51:18;16.00;99.90
5834;DHT22;2943;48.012;10.968;2023-07-31T04:53:47;16.00;99.90
5834;DHT22;2943;48.012;10.968;2023-07-31T04:56:14;16.10;99.90
5834;DHT22;2943;48.012;10.968;2023-07-31T04:58:41;16.10;99.90
5834;DHT22;2943;48.012;10.968;2023-07-31T05:01:08;16.10;99.90
5834;DHT22;2943;48.012;10.968;2023-07-31T05:03:34;16.20;99.90
5834;DHT22;2943;48.012;10.968;2023-07-31T05:06:01;16.40;99.90
5834;DHT22;2943;48.012;10.968;2023-07-31T05:08:27;16.50;99.90
5834;DHT22;2943;48.012;10.968;2023-07-31T05:10:55;16.60;99.90
5834;DHT22;2943;48.012;10.968;2023-07-31T05:13:22;16.50;99.90
5834;DHT22;2943;48.012;10.968;2023-07-31T05:15:48;16.50;99.90
5834;DHT22;2943;48.012;10.968;2023-07-31T05:18:15;16.50;99.90
5834;DHT22;2943;48.012;10.968;2023-07-31T05:20:42;16.50;99.90
5834;DHT22;2943;48.012;10.968;2023-07-31T05:23:09;16.50;99.90
5834;DHT22;2943;48.012;10.968;2023-07-31T05:25:35;16.50;99.90
5834;DHT22;2943;48.012;10.968;2023-07-31T05:28:03;16.50;99.90
5834;DHT22;2943;48.012;10.968;2023-07-31T05:30:30;16.50;99.90
5834;DHT22;2943;48.012;10.968;2023-07-31T05:32:57;16.50;99.90
5834;DHT22;2943;48.012;10.968;2023-07-31T05:35:23;16.50;99.90
5834;DHT22;2943;48.012;10.968;2023-07-31T05:37:50;16.50;99.90
5834;DHT22;2943;48.012;10.968;2023-07-31T05:40:16;16.50;99.90
5834;DHT22;2943;48.012;10.968;2023-07-31T05:42:43;16.60;99.90
5834;DHT22;2943;48.012;10.968;2023-07-31T05:45:11;16.70;99.90
5834;DHT22;2943;48.012;10.968;2023-07-31T05:47:38;16.70;99.90
5834;DHT22;2943;48.012;10.968;2023-07-31T05:50:05;16.80;99.90
5834;DHT22;2943;48.012;10.968;2023-07-31T05:52:32;16.90;99.90
5834;DHT22;2943;48.012;10.968;2023-07-31T05:54:58;16.90;99.90
5834;DHT22;2943;48.012;10.968;2023-07-31T05:57:26;17.00;99.90
5834;DHT22;2943;48.012;10.968;2023-07-31T05:59:53;16.90;99.90
5834;DHT22;2943;48.012;10.968;2023-07-31T06:02:21;17.00;99.90
5834;DHT22;2943;48.012;10.968;2023-07-31T06:04:47;17.10;99.90
5834;DHT22;2943;48.012;10.968;2023-07-31T06:07:14;17.10;99.90
5834;DHT22;2943;48.012;10.968;2023-07-31T06:09:41;17.10;99.90
5834;DHT22;2943;48.012;10.968;2023-07-31T06:12:08;17.10;99.90
5834;DHT22;2943;48.012;10.968;2023-07-31T06:14:34;17.10;99.90
5834;DHT22;2943;48.012;10.968;2023-07-31T06:17:01;17.20;99.90
5834;DHT22;2943;48.012;10.968;2023-07-31T06:19:29;17.10;99.90
5834;DHT22;2943;48.012;10.968;2023-07-31T06:21:56;17.10;99.90
5834;DHT22;2943;48.012;10.968;2023-07-31T06:24:22;17.20;99.90
5834;DHT22;2943;48.012;10.968;2023-07-31T06:26:49;17.20;99.90
5834;DHT22;2943;48.012;10.968;2023-07-31T06:29:16;17.30;99.90
5834;DHT22;2943;48.012;10.968;2023-07-31T06:31:42;17.40;99.90
5834;DHT22;2943;48.012;10.968;2023-07-31T06:34:09;17.40;99.90
5834;DHT22;2943;48.012;10.968;2023-07-31T06:36:37;17.50;99.90
5834;DHT22;2943;48.012;10.968;2023-07-31T06:39:03;17.50;99.90
5834;DHT22;2943;48.012;10.968;2023-07-31T06:41:30;17.50;99.90
5834;DHT22;2943;48.012;10.968;2023-07-31T06:43:57;17.60;99.90
5834;DHT22;2943;48.012;10.968;2023-07-31T06:46:23;17.50;99.90
5834;DHT22;2943;48.012;10.968;2023-07-31T06:48:50;17.50;99.90
5834;DHT22;2943;48.012;10.968;2023-07-31T06:51:17;17.60;99.90
5834;DHT22;2943;48.012;10.968;2023-07-31T06:53:45;17.60;99.90
5834;DHT22;2943;48.012;10.968;2023-07-31T06:56:12;17.60;99.90
5834;DHT22;2943;48.012;10.968;2023-07-31T06:58:38;17.60;99.90
5834;DHT22;2943;48.012;10.968;2023-07-31T07:01:05;17.70;99.90
5834;DHT22;2943;48.012;10.968;2023-07-31T07:03:32;17.70;99.90
5834;DHT22;2943;48.012;10.968;2023-07-31T07:05:59;17.80;99.90
5834;DHT22;2943;48.012;10.968;2023-07-31T07:08:25;17.80;99.90
5834;DHT22;2943;48.012;10.968;2023-07-31T07:10:53;17.90;99.90
5834;DHT22;2943;48.012;10.968;2023-07-31T07:13:20;18.00;99.90
5834;DHT22;2943;48.012;10.968;2023-07-31T07:15:47;18.10;99.90
5834;DHT22;2943;48.012;10.968;2023-07-31T07:18:14;18.10;99.90
5834;DHT22;2943;48.012;10.968;2023-07-31T07:20:45;18.20;99.90
5834;DHT22;2943;48.012;10.968;2023-07-31T07:23:12;18.30;99.90
5834;DHT22;2943;48.012;10.968;2023-07-31T07:25:39;18.40;99.90
5834;DHT22;2943;48.012;10.968;2023-07-31T07:28:06;18.40;99.90
5834;DHT22;2943;48.012;10.968;2023-07-31T07:30:33;18.50;99.90
5834;DHT22;2943;48.012;10.968;2023-07-31T07:33:00;18.60;99.90
5834;DHT22;2943;48.012;10.968;2023-07-31T07:35:26;18.60;99.90
5834;DHT22;2943;48.012;10.968;2023-07-31T07:37:53;18.70;99.90
5834;DHT22;2943;48.012;10.968;2023-07-31T07:40:20;18.80;99.90
5834;DHT22;2943;48.012;10.968;2023-07-31T07:42:46;18.90;99.90
5834;DHT22;2943;48.012;10.968;2023-07-31T07:45:14;19.00;99.90
5834;DHT22;2943;48.012;10.968;2023-07-31T07:47:41;19.10;99.90
5834;DHT22;2943;48.012;10.968;2023-07-31T07:50:08;19.20;99.90
5834;DHT22;2943;48.012;10.968;2023-07-31T07:52:34;19.30;99.90
5834;DHT22;2943;48.012;10.968;2023-07-31T07:55:01;19.30;99.90
5834;DHT22;2943;48.012;10.968;2023-07-31T07:57:29;19.40;99.90
5834;DHT22;2943;48.012;10.968;2023-07-31T07:59:55;19.50;99.90
5834;DHT22;2943;48.012;10.968;2023-07-31T08:02:23;19.50;99.90
5834;DHT22;2943;48.012;10.968;2023-07-31T08:04:50;19.60;99.90
5834;DHT22;2943;48.012;10.968;2023-07-31T08:07:17;19.50;99.90
5834;DHT22;2943;48.012;10.968;2023-07-31T08:09:43;19.50;99.90
5834;DHT22;2943;48.012;10.968;2023-07-31T08:12:10;19.50;99.90
5834;DHT22;2943;48.012;10.968;2023-07-31T08:14:36;19.40;99.90
5834;DHT22;2943;48.012;10.968;2023-07-31T08:17:03;19.40;99.90
5834;DHT22;2943;48.012;10.968;2023-07-31T08:19:31;19.40;99.90
5834;DHT22;2943;48.012;10.968;2023-07-31T08:21:58;19.40;99.90
5834;DHT22;2943;48.012;10.968;2023-07-31T08:24:24;19.40;99.90
5834;DHT22;2943;48.012;10.968;2023-07-31T08:26:51;19.40;99.90
5834;DHT22;2943;48.012;10.968;2023-07-31T08:29:18;19.40;99.90
5834;DHT22;2943;48.012;10.968;2023-07-31T08:31:44;19.40;99.90
5834;DHT22;2943;48.012;10.968;2023-07-31T08:34:11;19.30;99.90
5834;DHT22;2943;48.012;10.968;2023-07-31T08:36:39;19.30;99.90
5834;DHT22;2943;48.012;10.968;2023-07-31T08:39:05;19.30;99.90
5834;DHT22;2943;48.012;10.968;2023-07-31T08:41:36;19.30;99.90
5834;DHT22;2943;48.012;10.968;2023-07-31T08:44:03;19.40;99.90
5834;DHT22;2943;48.012;10.968;2023-07-31T08:46:30;19.40;99.90
5834;DHT22;2943;48.012;10.968;2023-07-31T08:48:57;19.50;99.90
5834;DHT22;2943;48.012;10.968;2023-07-31T08:51:25;19.50;99.90
5834;DHT22;2943;48.012;10.968;2023-07-31T08:53:53;19.50;99.90
5834;DHT22;2943;48.012;10.968;2023-07-31T08:56:20;19.60;99.90
5834;DHT22;2943;48.012;10.968;2023-07-31T08:58:47;19.60;99.90
5834;DHT22;2943;48.012;10.968;2023-07-31T09:01:13;19.70;99.90
5834;DHT22;2943;48.012;10.968;2023-07-31T09:03:41;19.70;99.90
5834;DHT22;2943;48.012;10.968;2023-07-31T09:06:08;19.80;99.90
5834;DHT22;2943;48.012;10.968;2023-07-31T09:08:35;19.80;99.90
5834;DHT22;2943;48.012;10.968;2023-07-31T09:11:05;19.80;99.90
5834;DHT22;2943;48.012;10.968;2023-07-31T09:13:32;19.80;99.90
5834;DHT22;2943;48.012;10.968;2023-07-31T09:15:59;19.80;99.90
5834;DHT22;2943;48.012;10.968;2023-07-31T09:18:26;19.90;99.90
5834;DHT22;2943;48.012;10.968;2023-07-31T09:21:00;20.00;99.90
5834;DHT22;2943;48.012;10.968;2023-07-31T09:23:27;20.10;99.90
5834;DHT22;2943;48.012;10.968;2023-07-31T09:26:07;20.20;99.90
5834;DHT22;2943;48.012;10.968;2023-07-31T09:28:34;20.40;99.90
5834;DHT22;2943;48.012;10.968;2023-07-31T09:31:00;20.40;99.90
5834;DHT22;2943;48.012;10.968;2023-07-31T09:33:27;20.40;99.90
5834;DHT22;2943;48.012;10.968;2023-07-31T09:35:53;20.50;99.90
5834;DHT22;2943;48.012;10.968;2023-07-31T09:38:20;20.60;99.90
5834;DHT22;2943;48.012;10.968;2023-07-31T09:40:47;20.70;99.90
5834;DHT22;2943;48.012;10.968;2023-07-31T09:43:18;20.80;99.90
5834;DHT22;2943;48.012;10.968;2023-07-31T09:45:45;21.00;99.90
5834;DHT22;2943;48.012;10.968;2023-07-31T09:48:12;21.00;99.90
5834;DHT22;2943;48.012;10.968;2023-07-31T09:50:42;21.00;99.90
5834;DHT22;2943;48.012;10.968;2023-07-31T09:53:09;21.00;99.90
5834;DHT22;2943;48.012;10.968;2023-07-31T09:55:36;21.10;99.90
5834;DHT22;2943;48.012;10.968;2023-07-31T09:58:03;21.10;99.90
5834;DHT22;2943;48.012;10.968;2023-07-31T10:00:32;21.20;99.90
5834;DHT22;2943;48.012;10.968;2023-07-31T10:02:59;21.20;99.90
5834;DHT22;2943;48.012;10.968;2023-07-31T10:05:28;21.30;99.90
5834;DHT22;2943;48.012;10.968;2023-07-31T10:07:56;21.30;99.90
5834;DHT22;2943;48.012;10.968;2023-07-31T10:10:24;21.40;99.90
5834;DHT22;2943;48.012;10.968;2023-07-31T10:12:51;21.40;99.90
5834;DHT22;2943;48.012;10.968;2023-07-31T10:15:18;21.40;99.90
5834;DHT22;2943;48.012;10.968;2023-07-31T10:17:47;21.50;99.90
5834;DHT22;2943;48.012;10.968;2023-07-31T10:20:14;21.60;99.90
5834;DHT22;2943;48.012;10.968;2023-07-31T10:22:41;21.70;99.90
5834;DHT22;2943;48.012;10.968;2023-07-31T10:25:09;21.80;99.90
5834;DHT22;2943;48.012;10.968;2023-07-31T10:27:35;21.90;99.90
5834;DHT22;2943;48.012;10.968;2023-07-31T10:30:02;21.90;99.90
5834;DHT22;2943;48.012;10.968;2023-07-31T10:32:30;21.90;99.90
5834;DHT22;2943;48.012;10.968;2023-07-31T10:34:58;21.90;99.90
5834;DHT22;2943;48.012;10.968;2023-07-31T10:37:25;21.90;99.90
5834;DHT22;2943;48.012;10.968;2023-07-31T10:39:59;22.00;99.90
5834;DHT22;2943;48.012;10.968;2023-07-31T10:42:30;22.10;99.90
5834;DHT22;2943;48.012;10.968;2023-07-31T10:44:57;22.10;99.90
5834;DHT22;2943;48.012;10.968;2023-07-31T10:47:24;22.10;99.90
5834;DHT22;2943;48.012;10.968;2023-07-31T10:49:51;22.20;99.90
5834;DHT22;2943;48.012;10.968;2023-07-31T10:52:20;22.30;99.90
5834;DHT22;2943;48.012;10.968;2023-07-31T10:54:49;22.40;99.90
5834;DHT22;2943;48.012;10.968;2023-07-31T10:57:19;22.30;99.90
5834;DHT22;2943;48.012;10.968;2023-07-31T10:59:45;22.30;99.90
5834;DHT22;2943;48.012;10.968;2023-07-31T11:02:23;22.40;99.90
5834;DHT22;2943;48.012;10.968;2023-07-31T11:05:05;22.40;99.90
5834;DHT22;2943;48.012;10.968;2023-07-31T11:10:17;22.50;99.90
5834;DHT22;2943;48.012;10.968;2023-07-31T11:12:44;22.50;99.90
5834;DHT22;2943;48.012;10.968;2023-07-31T11:15:11;22.60;99.90
5834;DHT22;2943;48.012;10.968;2023-07-31T11:17:38;22.70;99.90
5834;DHT22;2943;48.012;10.968;2023-07-31T11:20:05;22.90;99.90
5834;DHT22;2943;48.012;10.968;2023-07-31T11:22:32;23.00;99.90
5834;DHT22;2943;48.012;10.968;2023-07-31T11:25:00;23.20;99.90
5834;DHT22;2943;48.012;10.968;2023-07-31T11:27:29;23.20;99.90
5834;DHT22;2943;48.012;10.968;2023-07-31T11:29:59;23.30;99.90
5834;DHT22;2943;48.012;10.968;2023-07-31T11:32:26;23.40;99.90
5834;DHT22;2943;48.012;10.968;2023-07-31T11:34:53;23.50;99.90
5834;DHT22;2943;48.012;10.968;2023-07-31T11:37:19;23.60;99.90
5834;DHT22;2943;48.012;10.968;2023-07-31T11:39:58;23.80;99.90
5834;DHT22;2943;48.012;10.968;2023-07-31T11:42:24;23.90;99.90
5834;DHT22;2943;48.012;10.968;2023-07-31T11:44:52;24.00;99.90
5834;DHT22;2943;48.012;10.968;2023-07-31T11:47:19;24.10;99.90
5834;DHT22;2943;48.012;10.968;2023-07-31T11:49:46;24.20;99.90
5834;DHT22;2943;48.012;10.968;2023-07-31T11:52:12;24.40;99.90
5834;DHT22;2943;48.012;10.968;2023-07-31T11:54:39;24.60;99.90
5834;DHT22;2943;48.012;10.968;2023-07-31T11:57:06;24.70;99.90
5834;DHT22;2943;48.012;10.968;2023-07-31T11:59:33;24.70;99.90
5834;DHT22;2943;48.012;10.968;2023-07-31T12:02:01;24.70;99.90
5834;DHT22;2943;48.012;10.968;2023-07-31T12:04:28;24.80;99.90
5834;DHT22;2943;48.012;10.968;2023-07-31T12:06:55;24.90;99.90
5834;DHT22;2943;48.012;10.968;2023-07-31T12:09:21;25.00;99.90
5834;DHT22;2943;48.012;10.968;2023-07-31T12:11:48;25.10;99.90
5834;DHT22;2943;48.012;10.968;2023-07-31T12:14:21;25.10;99.90
5834;DHT22;2943;48.012;10.968;2023-07-31T12:16:48;25.30;99.90
5834;DHT22;2943;48.012;10.968;2023-07-31T12:19:20;25.30;99.90
5834;DHT22;2943;48.012;10.968;2023-07-31T12:21:47;25.40;99.90
5834;DHT22;2943;48.012;10.968;2023-07-31T12:24:13;25.40;99.90
5834;DHT22;2943;48.012;10.968;2023-07-31T12:26:40;25.40;99.90
5834;DHT22;2943;48.012;10.968;2023-07-31T12:29:07;25.40;99.90
5834;DHT22;2943;48.012;10.968;2023-07-31T12:31:34;25.40;99.90
5834;DHT22;2943;48.012;10.968;2023-07-31T12:34:02;25.50;99.90
5834;DHT22;2943;48.012;10.968;2023-07-31T12:36:30;25.50;99.90
5834;DHT22;2943;48.012;10.968;2023-07-31T12:39:00;25.50;99.90
5834;DHT22;2943;48.012;10.968;2023-07-31T12:41:27;25.30;99.90
5834;DHT22;2943;48.012;10.968;2023-07-31T12:43:54;25.10;99.90
5834;DHT22;2943;48.012;10.968;2023-07-31T12:46:21;25.00;99.90
5834;DHT22;2943;48.012;10.968;2023-07-31T12:48:47;24.80;99.90
5834;DHT22;2943;48.012;10.968;2023-07-31T12:51:14;24.70;99.90
5834;DHT22;2943;48.012;10.968;2023-07-31T12:53:42;24.80;99.90
5834;DHT22;2943;48.012;10.968;2023-07-31T12:56:08;24.90;99.90
5834;DHT22;2943;48.012;10.968;2023-07-31T12:58:35;24.90;99.90
5834;DHT22;2943;48.012;10.968;2023-07-31T13:01:02;24.90;99.90
5834;DHT22;2943;48.012;10.968;2023-07-31T13:03:28;24.90;99.90
5834;DHT22;2943;48.012;10.968;2023-07-31T13:05:55;24.80;99.90
5834;DHT22;2943;48.012;10.968;2023-07-31T13:08:21;24.60;99.90
5834;DHT22;2943;48.012;10.968;2023-07-31T13:10:49;24.50;99.90
5834;DHT22;2943;48.012;10.968;2023-07-31T13:13:16;24.40;99.90
5834;DHT22;2943;48.012;10.968;2023-07-31T13:15:43;24.20;99.90
5834;DHT22;2943;48.012;10.968;2023-07-31T13:18:10;24.00;99.90
5834;DHT22;2943;48.012;10.968;2023-07-31T13:20:36;23.90;99.90
5834;DHT22;2943;48.012;10.968;2023-07-31T13:23:03;24.00;99.90
5834;DHT22;2943;48.012;10.968;2023-07-31T13:25:30;24.10;99.90
5834;DHT22;2943;48.012;10.968;2023-07-31T13:27:57;24.40;99.90
5834;DHT22;2943;48.012;10.968;2023-07-31T13:30:24;24.50;99.90
5834;DHT22;2943;48.012;10.968;2023-07-31T13:32:51;24.50;99.90
5834;DHT22;2943;48.012;10.968;2023-07-31T13:35:17;24.50;99.90
5834;DHT22;2943;48.012;10.968;2023-07-31T13:37:44;24.60;99.90
5834;DHT22;2943;48.012;10.968;2023-07-31T13:40:11;24.80;99.90
5834;DHT22;2943;48.012;10.968;2023-07-31T13:42:38;25.00;99.90
5834;DHT22;2943;48.012;10.968;2023-07-31T13:45:06;25.30;99.90
5834;DHT22;2943;48.012;10.968;2023-07-31T13:47:33;25.30;99.90
5834;DHT22;2943;48.012;10.968;2023-07-31T13:49:59;25.40;99.90
5834;DHT22;2943;48.012;10.968;2023-07-31T13:52:26;25.40;99.90
5834;DHT22;2943;48.012;10.968;2023-07-31T13:54:53;25.50;99.90
5834;DHT22;2943;48.012;10.968;2023-07-31T13:57:19;25.60;99.90
5834;DHT22;2943;48.012;10.968;2023-07-31T13:59:46;25.70;99.90
5834;DHT22;2943;48.012;10.968;2023-07-31T14:02:14;25.80;99.90
5834;DHT22;2943;48.012;10.968;2023-07-31T14:04:40;26.10;99.90
5834;DHT22;2943;48.012;10.968;2023-07-31T14:07:07;26.40;99.90
5834;DHT22;2943;48.012;10.968;2023-07-31T14:09:33;26.60;99.90
5834;DHT22;2943;48.012;10.968;2023-07-31T14:12:00;26.70;99.90
5834;DHT22;2943;48.012;10.968;2023-07-31T14:14:27;26.70;99.90
5834;DHT22;2943;48.012;10.968;2023-07-31T14:16:53;26.60;99.90
5834;DHT22;2943;48.012;10.968;2023-07-31T14:19:21;26.50;99.90
5834;DHT22;2943;48.012;10.968;2023-07-31T14:21:50;26.40;99.90
5834;DHT22;2943;48.012;10.968;2023-07-31T14:24:16;26.50;99.90
5834;DHT22;2943;48.012;10.968;2023-07-31T14:26:43;26.50;99.90
5834;DHT22;2943;48.012;10.968;2023-07-31T14:29:10;26.60;99.90
5834;DHT22;2943;48.012;10.968;2023-07-31T14:31:36;26.60;99.90
5834;DHT22;2943;48.012;10.968;2023-07-31T14:34:03;26.50;99.90
5834;DHT22;2943;48.012;10.968;2023-07-31T14:36:31;26.50;99.90
5834;DHT22;2943;48.012;10.968;2023-07-31T14:38:57;26.50;99.90
5834;DHT22;2943;48.012;10.968;2023-07-31T14:41:24;26.50;99.90
5834;DHT22;2943;48.012;10.968;2023-07-31T14:43:51;26.30;99.90
5834;DHT22;2943;48.012;10.968;2023-07-31T14:46:17;26.10;99.90
5834;DHT22;2943;48.012;10.968;2023-07-31T14:48:44;25.70;99.90
5834;DHT22;2943;48.012;10.968;2023-07-31T14:51:11;25.50;99.90
5834;DHT22;2943;48.012;10.968;2023-07-31T14:53:38;25.30;99.90
5834;DHT22;2943;48.012;10.968;2023-07-31T14:56:05;25.20;99.90
5834;DHT22;2943;48.012;10.968;2023-07-31T14:58:32;25.10;99.90
5834;DHT22;2943;48.012;10.968;2023-07-31T15:00:59;25.00;99.90
5834;DHT22;2943;48.012;10.968;2023-07-31T15:03:25;25.00;99.90
5834;DHT22;2943;48.012;10.968;2023-07-31T15:05:52;25.00;99.90
5834;DHT22;2943;48.012;10.968;2023-07-31T15:08:18;25.00;99.90
5834;DHT22;2943;48.012;10.968;2023-07-31T15:10:47;24.80;99.90
5834;DHT22;2943;48.012;10.968;2023-07-31T15:13:13;24.90;99.90
5834;DHT22;2943;48.012;10.968;2023-07-31T15:15:40;24.90;99.90
5834;DHT22;2943;48.012;10.968;2023-07-31T15:18:06;24.80;99.90
5834;DHT22;2943;48.012;10.968;2023-07-31T15:20:33;24.80;99.90
5834;DHT22;2943;48.012;10.968;2023-07-31T15:22:59;24.70;99.90
5834;DHT22;2943;48.012;10.968;2023-07-31T15:25:26;24.70;99.90
5834;DHT22;2943;48.012;10.968;2023-07-31T15:27:54;24.60;99.90
5834;DHT22;2943;48.012;10.968;2023-07-31T15:30:21;24.50;99.90
5834;DHT22;2943;48.012;10.968;2023-07-31T15:32:47;24.40;99.90
5834;DHT22;2943;48.012;10.968;2023-07-31T15:35:15;24.30;99.90
5834;DHT22;2943;48.012;10.968;2023-07-31T15:37:42;24.10;99.90
5834;DHT22;2943;48.012;10.968;2023-07-31T15:40:08;24.00;99.90
5834;DHT22;2943;48.012;10.968;2023-07-31T15:42:35;23.90;99.90
5834;DHT22;2943;48.012;10.968;2023-07-31T15:45:07;23.70;99.90
5834;DHT22;2943;48.012;10.968;2023-07-31T15:47:35;23.60;99.90